Curitiba, Brazil
Current Conditions -  °F | °C
As of 10:00 AM on Thursday 29 Jan 2015 (Local Time) from SBBI Reporting Station
Broken Clouds Broken Clouds  
Wind Chill: 72°   Ceiling: 1800
Heat Index: 72°   Visibility: 6mi
Dew Point: 64°   Wind: 12mph
Humidity: 78%   Direction: 340°NNW
Pressure: 30.03"   Gusts: 23mph
Location:  25.42°S, 49.29°W
Report Text: SBBI 291200Z 34010G20KT 9999 SCT015 BKN018 22/18 Q1017
Loading
Personal Weather Stations






























Interactive Weather Map New forecast layout! Learn more

10-Day Weather Forecast

Advertisements
Track Severe Weather on mobile